KLDJ

Linden Airport

Linden, New Jersey, USA
METAR KLDJ 151335Z AUTO 00000KT 10SM CLR M06/M13 A3013 RMK AO2 T10581127
Observed Flight Rules
Dec-15 @ 13:35 UTC (32 minutes ago) Visual Flight Rules
Wind Visibility Clouds
Calm 10 miles
  • Clear skies
Temperatures Readings
Current -6°C / 21°F
Dewpoint -13°C / 9°F
Humidity 58%
Altimeter 30.13" Hg
Pressure 1020 hPa
Elevation 7
METAR KLDJ 151335Z AUTO 00000KT 10SM CLR M06/M13 A3013 RMK AO2 T10581127
Observed Flight Rules
Dec-15 @ 13:35 UTC
(32 minutes ago)
VFR
Wind Visibility
Calm 10 miles
Clouds
  • Clear skies
Temperature Dewpoint
-6°C / 21°F -13°C / 9°F
Humidity Altimeter Pressure
58% 30.13" Hg 1020 hPa